sensor_id;sensor_type;location;lat;lon;timestamp;temperature;humidity
23233;DHT22;11785;49.500;8.288;2022-11-15T00:00:08;9.70;99.90
23233;DHT22;11785;49.500;8.288;2022-11-15T00:02:35;9.70;99.90
23233;DHT22;11785;49.500;8.288;2022-11-15T00:05:00;9.70;99.90
23233;DHT22;11785;49.500;8.288;2022-11-15T00:07:26;9.70;99.90
23233;DHT22;11785;49.500;8.288;2022-11-15T00:09:52;9.70;99.90
23233;DHT22;11785;49.500;8.288;2022-11-15T00:12:17;9.70;99.90
23233;DHT22;11785;49.500;8.288;2022-11-15T00:14:43;9.70;99.90
23233;DHT22;11785;49.500;8.288;2022-11-15T00:17:08;9.70;99.90
23233;DHT22;11785;49.500;8.288;2022-11-15T00:19:34;9.70;99.90
23233;DHT22;11785;49.500;8.288;2022-11-15T00:22:00;9.70;99.90
23233;DHT22;11785;49.500;8.288;2022-11-15T00:24:26;9.70;99.90
23233;DHT22;11785;49.500;8.288;2022-11-15T00:26:51;9.70;99.90
23233;DHT22;11785;49.500;8.288;2022-11-15T00:29:17;9.60;99.90
23233;DHT22;11785;49.500;8.288;2022-11-15T00:31:42;9.60;99.90
23233;DHT22;11785;49.500;8.288;2022-11-15T00:34:09;9.60;99.90
23233;DHT22;11785;49.500;8.288;2022-11-15T00:36:35;9.60;99.90
23233;DHT22;11785;49.500;8.288;2022-11-15T00:39:02;9.60;99.90
23233;DHT22;11785;49.500;8.288;2022-11-15T00:41:28;9.60;99.90
23233;DHT22;11785;49.500;8.288;2022-11-15T00:43:54;9.60;99.90
23233;DHT22;11785;49.500;8.288;2022-11-15T00:46:19;9.60;99.90
23233;DHT22;11785;49.500;8.288;2022-11-15T00:48:45;9.70;99.90
23233;DHT22;11785;49.500;8.288;2022-11-15T00:51:10;9.70;99.90
23233;DHT22;11785;49.500;8.288;2022-11-15T00:53:36;9.70;99.90
23233;DHT22;11785;49.500;8.288;2022-11-15T00:56:01;9.80;99.90
23233;DHT22;11785;49.500;8.288;2022-11-15T00:58:27;9.80;99.90
23233;DHT22;11785;49.500;8.288;2022-11-15T01:00:53;9.80;99.90
23233;DHT22;11785;49.500;8.288;2022-11-15T01:03:18;9.90;99.90
23233;DHT22;11785;49.500;8.288;2022-11-15T01:05:44;9.90;99.90
23233;DHT22;11785;49.500;8.288;2022-11-15T01:08:12;9.90;99.90
23233;DHT22;11785;49.500;8.288;2022-11-15T01:10:38;9.90;99.90
23233;DHT22;11785;49.500;8.288;2022-11-15T01:13:04;9.90;99.90
23233;DHT22;11785;49.500;8.288;2022-11-15T01:15:29;9.80;99.90
23233;DHT22;11785;49.500;8.288;2022-11-15T01:17:55;9.80;99.90
23233;DHT22;11785;49.500;8.288;2022-11-15T01:20:20;9.90;99.90
23233;DHT22;11785;49.500;8.288;2022-11-15T01:22:46;9.80;99.90
23233;DHT22;11785;49.500;8.288;2022-11-15T01:25:11;9.80;99.90
23233;DHT22;11785;49.500;8.288;2022-11-15T01:27:37;9.90;99.90
23233;DHT22;11785;49.500;8.288;2022-11-15T01:30:03;9.90;99.90
23233;DHT22;11785;49.500;8.288;2022-11-15T01:32:29;9.90;99.90
23233;DHT22;11785;49.500;8.288;2022-11-15T01:34:55;10.00;99.90
23233;DHT22;11785;49.500;8.288;2022-11-15T01:37:20;10.00;99.90
23233;DHT22;11785;49.500;8.288;2022-11-15T01:39:46;10.00;99.90
23233;DHT22;11785;49.500;8.288;2022-11-15T01:42:14;10.00;99.90
23233;DHT22;11785;49.500;8.288;2022-11-15T01:44:50;10.00;99.90
23233;DHT22;11785;49.500;8.288;2022-11-15T01:47:40;10.00;99.90
23233;DHT22;11785;49.500;8.288;2022-11-15T01:50:12;10.00;99.90
23233;DHT22;11785;49.500;8.288;2022-11-15T01:52:39;10.00;99.90
23233;DHT22;11785;49.500;8.288;2022-11-15T01:57:33;10.00;99.90
23233;DHT22;11785;49.500;8.288;2022-11-15T02:00:00;10.00;99.90
23233;DHT22;11785;49.500;8.288;2022-11-15T02:02:26;10.00;99.90
23233;DHT22;11785;49.500;8.288;2022-11-15T02:04:52;10.00;99.90
23233;DHT22;11785;49.500;8.288;2022-11-15T02:07:19;10.00;99.90
23233;DHT22;11785;49.500;8.288;2022-11-15T02:09:46;10.00;99.90
23233;DHT22;11785;49.500;8.288;2022-11-15T02:12:14;10.00;99.90
23233;DHT22;11785;49.500;8.288;2022-11-15T02:14:43;10.00;99.90
23233;DHT22;11785;49.500;8.288;2022-11-15T02:17:31;9.90;99.90
23233;DHT22;11785;49.500;8.288;2022-11-15T02:23:22;9.90;99.90
23233;DHT22;11785;49.500;8.288;2022-11-15T02:25:59;9.90;99.90
23233;DHT22;11785;49.500;8.288;2022-11-15T02:39:10;9.90;99.90
23233;DHT22;11785;49.500;8.288;2022-11-15T02:45:13;9.80;99.90
23233;DHT22;11785;49.500;8.288;2022-11-15T02:47:46;9.80;99.90
23233;DHT22;11785;49.500;8.288;2022-11-15T02:50:18;9.80;99.90
23233;DHT22;11785;49.500;8.288;2022-11-15T02:52:51;9.70;99.90
23233;DHT22;11785;49.500;8.288;2022-11-15T02:55:36;9.70;99.90
23233;DHT22;11785;49.500;8.288;2022-11-15T03:07:05;9.70;99.90
23233;DHT22;11785;49.500;8.288;2022-11-15T03:09:42;9.70;99.90
23233;DHT22;11785;49.500;8.288;2022-11-15T03:12:28;9.70;99.90
23233;DHT22;11785;49.500;8.288;2022-11-15T03:15:01;9.70;99.90
23233;DHT22;11785;49.500;8.288;2022-11-15T03:17:35;9.70;99.90
23233;DHT22;11785;49.500;8.288;2022-11-15T03:20:04;9.70;99.90
23233;DHT22;11785;49.500;8.288;2022-11-15T03:22:34;9.70;99.90
23233;DHT22;11785;49.500;8.288;2022-11-15T03:25:05;9.70;99.90
23233;DHT22;11785;49.500;8.288;2022-11-15T03:27:36;9.70;99.90
23233;DHT22;11785;49.500;8.288;2022-11-15T03:30:06;9.80;99.90
23233;DHT22;11785;49.500;8.288;2022-11-15T03:32:38;9.80;99.90
23233;DHT22;11785;49.500;8.288;2022-11-15T03:35:08;9.80;99.90
23233;DHT22;11785;49.500;8.288;2022-11-15T03:40:10;9.80;99.90
23233;DHT22;11785;49.500;8.288;2022-11-15T03:42:54;9.80;99.90
23233;DHT22;11785;49.500;8.288;2022-11-15T03:45:31;9.80;99.90
23233;DHT22;11785;49.500;8.288;2022-11-15T03:48:02;9.90;99.90
23233;DHT22;11785;49.500;8.288;2022-11-15T03:50:30;9.90;99.90
23233;DHT22;11785;49.500;8.288;2022-11-15T03:52:57;9.90;99.90
23233;DHT22;11785;49.500;8.288;2022-11-15T03:55:23;9.90;99.90
23233;DHT22;11785;49.500;8.288;2022-11-15T03:57:54;9.90;99.90
23233;DHT22;11785;49.500;8.288;2022-11-15T04:00:22;9.90;99.90
23233;DHT22;11785;49.500;8.288;2022-11-15T04:02:47;9.90;99.90
23233;DHT22;11785;49.500;8.288;2022-11-15T04:05:13;9.90;99.90
23233;DHT22;11785;49.500;8.288;2022-11-15T04:07:38;9.90;99.90
23233;DHT22;11785;49.500;8.288;2022-11-15T04:10:04;9.80;99.90
23233;DHT22;11785;49.500;8.288;2022-11-15T04:12:35;9.80;99.90
23233;DHT22;11785;49.500;8.288;2022-11-15T04:15:04;9.90;99.90
23233;DHT22;11785;49.500;8.288;2022-11-15T04:17:34;9.80;99.90
23233;DHT22;11785;49.500;8.288;2022-11-15T04:20:01;9.90;99.90
23233;DHT22;11785;49.500;8.288;2022-11-15T04:22:45;9.90;99.90
23233;DHT22;11785;49.500;8.288;2022-11-15T04:25:29;9.90;99.90
23233;DHT22;11785;49.500;8.288;2022-11-15T04:27:54;9.90;99.90
23233;DHT22;11785;49.500;8.288;2022-11-15T04:30:20;9.90;99.90
23233;DHT22;11785;49.500;8.288;2022-11-15T04:32:45;9.90;99.90
23233;DHT22;11785;49.500;8.288;2022-11-15T04:35:11;9.90;99.90
23233;DHT22;11785;49.500;8.288;2022-11-15T04:37:37;9.90;99.90
23233;DHT22;11785;49.500;8.288;2022-11-15T04:40:02;9.90;99.90
23233;DHT22;11785;49.500;8.288;2022-11-15T04:42:28;9.90;99.90
23233;DHT22;11785;49.500;8.288;2022-11-15T04:44:53;9.80;99.90
23233;DHT22;11785;49.500;8.288;2022-11-15T04:47:19;9.90;99.90
23233;DHT22;11785;49.500;8.288;2022-11-15T04:49:45;9.80;99.90
23233;DHT22;11785;49.500;8.288;2022-11-15T04:52:10;9.80;99.90
23233;DHT22;11785;49.500;8.288;2022-11-15T04:54:36;9.80;99.90
23233;DHT22;11785;49.500;8.288;2022-11-15T04:57:01;9.80;99.90
23233;DHT22;11785;49.500;8.288;2022-11-15T04:59:27;9.80;99.90
23233;DHT22;11785;49.500;8.288;2022-11-15T05:01:53;9.80;99.90
23233;DHT22;11785;49.500;8.288;2022-11-15T05:04:18;9.80;99.90
23233;DHT22;11785;49.500;8.288;2022-11-15T05:06:48;9.80;99.90
23233;DHT22;11785;49.500;8.288;2022-11-15T05:09:14;9.80;99.90
23233;DHT22;11785;49.500;8.288;2022-11-15T05:11:40;9.80;99.90
23233;DHT22;11785;49.500;8.288;2022-11-15T05:14:05;9.80;99.90
23233;DHT22;11785;49.500;8.288;2022-11-15T05:16:31;9.80;99.90
23233;DHT22;11785;49.500;8.288;2022-11-15T05:18:57;9.80;99.90
23233;DHT22;11785;49.500;8.288;2022-11-15T05:21:22;9.70;99.90
23233;DHT22;11785;49.500;8.288;2022-11-15T05:23:48;9.70;99.90
23233;DHT22;11785;49.500;8.288;2022-11-15T05:26:15;9.70;99.90
23233;DHT22;11785;49.500;8.288;2022-11-15T05:28:43;9.70;99.90
23233;DHT22;11785;49.500;8.288;2022-11-15T05:31:13;9.80;99.90
23233;DHT22;11785;49.500;8.288;2022-11-15T05:33:40;9.80;99.90
23233;DHT22;11785;49.500;8.288;2022-11-15T05:36:38;9.80;99.90
23233;DHT22;11785;49.500;8.288;2022-11-15T05:39:07;9.80;99.90
23233;DHT22;11785;49.500;8.288;2022-11-15T05:41:39;9.80;99.90
23233;DHT22;11785;49.500;8.288;2022-11-15T05:44:10;9.80;99.90
23233;DHT22;11785;49.500;8.288;2022-11-15T05:46:37;9.80;99.90
23233;DHT22;11785;49.500;8.288;2022-11-15T05:49:06;9.80;99.90
23233;DHT22;11785;49.500;8.288;2022-11-15T05:51:32;9.80;99.90
23233;DHT22;11785;49.500;8.288;2022-11-15T05:53:58;9.80;99.90
23233;DHT22;11785;49.500;8.288;2022-11-15T05:56:25;9.80;99.90
23233;DHT22;11785;49.500;8.288;2022-11-15T05:58:53;9.70;99.90
23233;DHT22;11785;49.500;8.288;2022-11-15T06:01:20;9.70;99.90
23233;DHT22;11785;49.500;8.288;2022-11-15T06:03:46;9.60;99.90
23233;DHT22;11785;49.500;8.288;2022-11-15T06:06:11;9.50;99.90
23233;DHT22;11785;49.500;8.288;2022-11-15T06:08:37;9.50;99.90
23233;DHT22;11785;49.500;8.288;2022-11-15T06:11:04;9.40;99.90
23233;DHT22;11785;49.500;8.288;2022-11-15T06:13:30;9.40;99.90
23233;DHT22;11785;49.500;8.288;2022-11-15T06:15:56;9.30;99.90
23233;DHT22;11785;49.500;8.288;2022-11-15T06:18:22;9.30;99.90
23233;DHT22;11785;49.500;8.288;2022-11-15T06:20:47;9.30;99.90
23233;DHT22;11785;49.500;8.288;2022-11-15T06:23:13;9.30;99.90
23233;DHT22;11785;49.500;8.288;2022-11-15T06:25:39;9.30;99.90
23233;DHT22;11785;49.500;8.288;2022-11-15T06:28:04;9.30;99.90
23233;DHT22;11785;49.500;8.288;2022-11-15T06:30:30;9.30;99.90
23233;DHT22;11785;49.500;8.288;2022-11-15T06:33:02;9.40;99.90
23233;DHT22;11785;49.500;8.288;2022-11-15T06:35:28;9.40;99.90
23233;DHT22;11785;49.500;8.288;2022-11-15T06:37:54;9.40;99.90
23233;DHT22;11785;49.500;8.288;2022-11-15T06:40:20;9.50;99.90
23233;DHT22;11785;49.500;8.288;2022-11-15T06:42:46;9.50;99.90
23233;DHT22;11785;49.500;8.288;2022-11-15T06:45:11;9.60;99.90
23233;DHT22;11785;49.500;8.288;2022-11-15T06:47:47;9.60;99.90
23233;DHT22;11785;49.500;8.288;2022-11-15T06:50:13;9.60;99.90
23233;DHT22;11785;49.500;8.288;2022-11-15T06:52:39;9.60;99.90
23233;DHT22;11785;49.500;8.288;2022-11-15T06:55:05;9.50;99.90
23233;DHT22;11785;49.500;8.288;2022-11-15T06:57:31;9.50;99.90
23233;DHT22;11785;49.500;8.288;2022-11-15T06:59:57;9.50;99.90
23233;DHT22;11785;49.500;8.288;2022-11-15T07:02:23;9.50;99.90
23233;DHT22;11785;49.500;8.288;2022-11-15T07:04:48;9.50;99.90
23233;DHT22;11785;49.500;8.288;2022-11-15T07:07:14;9.60;99.90
23233;DHT22;11785;49.500;8.288;2022-11-15T07:09:39;9.60;99.90
23233;DHT22;11785;49.500;8.288;2022-11-15T07:12:05;9.70;99.90
23233;DHT22;11785;49.500;8.288;2022-11-15T07:14:31;9.70;99.90
23233;DHT22;11785;49.500;8.288;2022-11-15T07:16:56;9.70;99.90
23233;DHT22;11785;49.500;8.288;2022-11-15T07:19:22;9.70;99.90
23233;DHT22;11785;49.500;8.288;2022-11-15T07:21:47;9.70;99.90
23233;DHT22;11785;49.500;8.288;2022-11-15T07:24:13;9.70;99.90
23233;DHT22;11785;49.500;8.288;2022-11-15T07:26:38;9.70;99.90
23233;DHT22;11785;49.500;8.288;2022-11-15T07:29:04;9.70;99.90
23233;DHT22;11785;49.500;8.288;2022-11-15T07:31:29;9.80;99.90
23233;DHT22;11785;49.500;8.288;2022-11-15T07:33:55;9.80;99.90
23233;DHT22;11785;49.500;8.288;2022-11-15T07:36:21;9.90;99.90
23233;DHT22;11785;49.500;8.288;2022-11-15T07:38:47;9.90;99.90
23233;DHT22;11785;49.500;8.288;2022-11-15T07:41:12;10.00;99.90
23233;DHT22;11785;49.500;8.288;2022-11-15T07:43:38;10.00;99.90
23233;DHT22;11785;49.500;8.288;2022-11-15T07:46:08;10.10;99.90
23233;DHT22;11785;49.500;8.288;2022-11-15T07:48:37;10.00;99.90
23233;DHT22;11785;49.500;8.288;2022-11-15T07:51:05;10.00;99.90
23233;DHT22;11785;49.500;8.288;2022-11-15T07:53:31;10.00;99.90
23233;DHT22;11785;49.500;8.288;2022-11-15T07:55:57;10.00;99.90
23233;DHT22;11785;49.500;8.288;2022-11-15T07:58:22;10.00;99.90
23233;DHT22;11785;49.500;8.288;2022-11-15T08:00:48;10.00;99.90
23233;DHT22;11785;49.500;8.288;2022-11-15T08:03:15;10.00;99.90
23233;DHT22;11785;49.500;8.288;2022-11-15T08:05:42;10.00;99.90
23233;DHT22;11785;49.500;8.288;2022-11-15T08:08:10;10.00;99.90
23233;DHT22;11785;49.500;8.288;2022-11-15T08:10:36;10.10;99.90
23233;DHT22;11785;49.500;8.288;2022-11-15T08:13:07;10.10;99.90
23233;DHT22;11785;49.500;8.288;2022-11-15T08:15:34;10.10;99.90
23233;DHT22;11785;49.500;8.288;2022-11-15T08:18:03;10.10;99.90
23233;DHT22;11785;49.500;8.288;2022-11-15T08:20:30;10.10;99.90
23233;DHT22;11785;49.500;8.288;2022-11-15T08:22:57;10.20;99.90
23233;DHT22;11785;49.500;8.288;2022-11-15T08:25:23;10.10;99.90
23233;DHT22;11785;49.500;8.288;2022-11-15T08:27:53;10.20;99.90
23233;DHT22;11785;49.500;8.288;2022-11-15T08:30:19;10.20;99.90
23233;DHT22;11785;49.500;8.288;2022-11-15T08:32:45;10.20;99.90
23233;DHT22;11785;49.500;8.288;2022-11-15T08:35:11;10.30;99.90
23233;DHT22;11785;49.500;8.288;2022-11-15T08:37:37;10.30;99.90
23233;DHT22;11785;49.500;8.288;2022-11-15T08:40:03;10.30;99.90
23233;DHT22;11785;49.500;8.288;2022-11-15T08:42:29;10.30;99.90
23233;DHT22;11785;49.500;8.288;2022-11-15T08:44:54;10.30;99.90
23233;DHT22;11785;49.500;8.288;2022-11-15T08:47:20;10.30;99.90
23233;DHT22;11785;49.500;8.288;2022-11-15T08:49:45;10.40;99.90
23233;DHT22;11785;49.500;8.288;2022-11-15T08:52:11;10.50;99.90
23233;DHT22;11785;49.500;8.288;2022-11-15T08:54:36;10.50;99.90
23233;DHT22;11785;49.500;8.288;2022-11-15T08:57:02;10.60;99.90
23233;DHT22;11785;49.500;8.288;2022-11-15T08:59:28;10.60;99.90
23233;DHT22;11785;49.500;8.288;2022-11-15T09:01:53;10.60;99.90
23233;DHT22;11785;49.500;8.288;2022-11-15T09:04:19;10.70;99.90
23233;DHT22;11785;49.500;8.288;2022-11-15T09:06:44;10.70;99.90
23233;DHT22;11785;49.500;8.288;2022-11-15T09:09:10;10.90;99.90
23233;DHT22;11785;49.500;8.288;2022-11-15T09:11:35;10.90;99.90
23233;DHT22;11785;49.500;8.288;2022-11-15T09:14:01;11.00;99.90
23233;DHT22;11785;49.500;8.288;2022-11-15T09:16:27;11.20;99.90
23233;DHT22;11785;49.500;8.288;2022-11-15T09:18:53;11.20;99.90
23233;DHT22;11785;49.500;8.288;2022-11-15T09:21:19;11.20;99.90
23233;DHT22;11785;49.500;8.288;2022-11-15T09:23:45;11.20;99.90
23233;DHT22;11785;49.500;8.288;2022-11-15T09:26:10;11.20;99.90
23233;DHT22;11785;49.500;8.288;2022-11-15T09:28:37;11.20;99.90
23233;DHT22;11785;49.500;8.288;2022-11-15T09:31:04;11.20;99.90
23233;DHT22;11785;49.500;8.288;2022-11-15T09:33:30;11.20;99.90
23233;DHT22;11785;49.500;8.288;2022-11-15T09:36:01;11.20;99.90
23233;DHT22;11785;49.500;8.288;2022-11-15T09:38:27;11.20;99.90
23233;DHT22;11785;49.500;8.288;2022-11-15T09:41:08;11.20;99.90
23233;DHT22;11785;49.500;8.288;2022-11-15T09:46:42;11.20;99.90
23233;DHT22;11785;49.500;8.288;2022-11-15T09:49:10;11.30;99.90
23233;DHT22;11785;49.500;8.288;2022-11-15T09:51:40;11.30;99.90
23233;DHT22;11785;49.500;8.288;2022-11-15T09:54:37;11.30;99.90
23233;DHT22;11785;49.500;8.288;2022-11-15T09:57:09;11.20;99.90
23233;DHT22;11785;49.500;8.288;2022-11-15T10:05:01;11.10;99.90
23233;DHT22;11785;49.500;8.288;2022-11-15T10:12:59;11.10;99.90
23233;DHT22;11785;49.500;8.288;2022-11-15T10:15:24;11.10;99.90
23233;DHT22;11785;49.500;8.288;2022-11-15T10:20:27;11.20;99.90
23233;DHT22;11785;49.500;8.288;2022-11-15T10:22:56;11.10;99.90
23233;DHT22;11785;49.500;8.288;2022-11-15T10:27:57;11.10;99.90
23233;DHT22;11785;49.500;8.288;2022-11-15T10:30:34;11.10;99.90
23233;DHT22;11785;49.500;8.288;2022-11-15T10:41:22;11.30;99.90
23233;DHT22;11785;49.500;8.288;2022-11-15T10:46:30;11.50;99.90
23233;DHT22;11785;49.500;8.288;2022-11-15T10:49:21;11.50;99.90
23233;DHT22;11785;49.500;8.288;2022-11-15T10:51:55;11.60;99.90
23233;DHT22;11785;49.500;8.288;2022-11-15T10:54:28;11.70;99.90
23233;DHT22;11785;49.500;8.288;2022-11-15T10:56:56;11.80;99.90
23233;DHT22;11785;49.500;8.288;2022-11-15T10:59:33;11.90;99.90
23233;DHT22;11785;49.500;8.288;2022-11-15T11:02:01;12.10;99.60
23233;DHT22;11785;49.500;8.288;2022-11-15T11:04:26;12.20;99.20
23233;DHT22;11785;49.500;8.288;2022-11-15T11:06:58;12.30;99.00
23233;DHT22;11785;49.500;8.288;2022-11-15T11:09:38;12.50;98.40
23233;DHT22;11785;49.500;8.288;2022-11-15T11:12:09;12.70;97.60
23233;DHT22;11785;49.500;8.288;2022-11-15T11:14:37;12.70;97.20
23233;DHT22;11785;49.500;8.288;2022-11-15T11:17:43;12.90;96.80
23233;DHT22;11785;49.500;8.288;2022-11-15T11:28:05;13.70;93.60
23233;DHT22;11785;49.500;8.288;2022-11-15T11:38:57;13.70;93.20
23233;DHT22;11785;49.500;8.288;2022-11-15T11:45:00;13.70;93.10
23233;DHT22;11785;49.500;8.288;2022-11-15T11:47:39;13.80;92.90
23233;DHT22;11785;49.500;8.288;2022-11-15T11:50:15;13.90;92.40
23233;DHT22;11785;49.500;8.288;2022-11-15T11:52:47;13.90;92.40
23233;DHT22;11785;49.500;8.288;2022-11-15T11:55:16;13.90;92.20
23233;DHT22;11785;49.500;8.288;2022-11-15T11:57:47;13.80;92.60
23233;DHT22;11785;49.500;8.288;2022-11-15T12:00:20;13.80;92.50
23233;DHT22;11785;49.500;8.288;2022-11-15T12:03:03;13.70;93.00
23233;DHT22;11785;49.500;8.288;2022-11-15T12:10:47;13.70;92.60
23233;DHT22;11785;49.500;8.288;2022-11-15T12:13:18;13.70;92.70
23233;DHT22;11785;49.500;8.288;2022-11-15T12:15:51;13.70;92.50
23233;DHT22;11785;49.500;8.288;2022-11-15T12:18:18;13.70;92.80
23233;DHT22;11785;49.500;8.288;2022-11-15T12:20:59;13.80;92.50
23233;DHT22;11785;49.500;8.288;2022-11-15T12:23:32;13.80;92.30
23233;DHT22;11785;49.500;8.288;2022-11-15T12:26:09;14.00;91.80
23233;DHT22;11785;49.500;8.288;2022-11-15T12:29:15;13.90;91.90
23233;DHT22;11785;49.500;8.288;2022-11-15T12:34:02;13.90;91.80
23233;DHT22;11785;49.500;8.288;2022-11-15T12:39:05;13.90;92.00
23233;DHT22;11785;49.500;8.288;2022-11-15T12:41:33;13.90;92.00
23233;DHT22;11785;49.500;8.288;2022-11-15T12:43:59;13.90;91.60
23233;DHT22;11785;49.500;8.288;2022-11-15T12:59:52;13.80;92.20
23233;DHT22;11785;49.500;8.288;2022-11-15T13:02:28;13.70;92.60
23233;DHT22;11785;49.500;8.288;2022-11-15T13:17:54;14.10;91.40
23233;DHT22;11785;49.500;8.288;2022-11-15T13:20:27;14.10;91.30
23233;DHT22;11785;49.500;8.288;2022-11-15T13:28:39;14.10;91.30
23233;DHT22;11785;49.500;8.288;2022-11-15T13:31:36;14.00;91.70
23233;DHT22;11785;49.500;8.288;2022-11-15T13:34:17;13.90;92.20
23233;DHT22;11785;49.500;8.288;2022-11-15T13:36:46;13.90;92.50
23233;DHT22;11785;49.500;8.288;2022-11-15T13:41:55;13.80;92.90
23233;DHT22;11785;49.500;8.288;2022-11-15T13:47:12;13.70;93.30
23233;DHT22;11785;49.500;8.288;2022-11-15T13:49:38;13.60;93.60
23233;DHT22;11785;49.500;8.288;2022-11-15T13:52:07;13.60;93.80
23233;DHT22;11785;49.500;8.288;2022-11-15T13:54:36;13.50;94.10
23233;DHT22;11785;49.500;8.288;2022-11-15T13:57:05;13.50;94.00
23233;DHT22;11785;49.500;8.288;2022-11-15T13:59:36;13.50;94.00
23233;DHT22;11785;49.500;8.288;2022-11-15T14:02:12;13.40;94.30
23233;DHT22;11785;49.500;8.288;2022-11-15T14:04:46;13.40;94.60
23233;DHT22;11785;49.500;8.288;2022-11-15T14:07:24;13.40;94.70
23233;DHT22;11785;49.500;8.288;2022-11-15T14:09:51;13.30;95.00
23233;DHT22;11785;49.500;8.288;2022-11-15T14:12:24;13.30;94.90
23233;DHT22;11785;49.500;8.288;2022-11-15T14:14:50;13.20;95.20
23233;DHT22;11785;49.500;8.288;2022-11-15T14:17:34;13.20;95.30
23233;DHT22;11785;49.500;8.288;2022-11-15T14:20:00;13.20;95.50
23233;DHT22;11785;49.500;8.288;2022-11-15T14:22:30;13.10;95.80
23233;DHT22;11785;49.500;8.288;2022-11-15T14:25:18;13.10;95.80
23233;DHT22;11785;49.500;8.288;2022-11-15T14:30:35;13.10;96.00
23233;DHT22;11785;49.500;8.288;2022-11-15T14:33:01;13.00;96.40
23233;DHT22;11785;49.500;8.288;2022-11-15T14:35:26;13.00;96.30
23233;DHT22;11785;49.500;8.288;2022-11-15T14:37:52;13.00;96.40
23233;DHT22;11785;49.500;8.288;2022-11-15T14:40:20;13.00;96.40
23233;DHT22;11785;49.500;8.288;2022-11-15T14:42:47;13.00;96.40
23233;DHT22;11785;49.500;8.288;2022-11-15T14:45:19;12.90;96.60
23233;DHT22;11785;49.500;8.288;2022-11-15T14:47:45;12.90;96.60
23233;DHT22;11785;49.500;8.288;2022-11-15T14:50:12;12.90;96.50
23233;DHT22;11785;49.500;8.288;2022-11-15T14:52:38;12.90;96.70
23233;DHT22;11785;49.500;8.288;2022-11-15T14:55:15;12.90;96.80
23233;DHT22;11785;49.500;8.288;2022-11-15T14:57:42;12.80;97.10
23233;DHT22;11785;49.500;8.288;2022-11-15T15:00:08;12.80;97.20
23233;DHT22;11785;49.500;8.288;2022-11-15T15:02:35;12.80;97.20
23233;DHT22;11785;49.500;8.288;2022-11-15T15:05:07;12.80;97.00
23233;DHT22;11785;49.500;8.288;2022-11-15T15:07:35;12.80;97.00
23233;DHT22;11785;49.500;8.288;2022-11-15T15:10:01;12.70;97.20
23233;DHT22;11785;49.500;8.288;2022-11-15T15:12:26;12.70;97.10
23233;DHT22;11785;49.500;8.288;2022-11-15T15:14:52;12.70;97.00
23233;DHT22;11785;49.500;8.288;2022-11-15T15:17:18;12.70;97.00
23233;DHT22;11785;49.500;8.288;2022-11-15T15:19:44;12.70;96.90
23233;DHT22;11785;49.500;8.288;2022-11-15T15:22:15;12.60;97.20
23233;DHT22;11785;49.500;8.288;2022-11-15T15:24:42;12.70;96.90
23233;DHT22;11785;49.500;8.288;2022-11-15T15:27:07;12.60;97.20
23233;DHT22;11785;49.500;8.288;2022-11-15T15:29:33;12.60;97.20
23233;DHT22;11785;49.500;8.288;2022-11-15T15:31:59;12.50;97.50
23233;DHT22;11785;49.500;8.288;2022-11-15T15:34:24;12.50;97.50
23233;DHT22;11785;49.500;8.288;2022-11-15T15:37:05;12.50;97.50
23233;DHT22;11785;49.500;8.288;2022-11-15T15:39:31;12.50;97.50
23233;DHT22;11785;49.500;8.288;2022-11-15T15:41:56;12.50;97.40
23233;DHT22;11785;49.500;8.288;2022-11-15T15:44:22;12.50;97.40
23233;DHT22;11785;49.500;8.288;2022-11-15T15:46:47;12.40;97.70
23233;DHT22;11785;49.500;8.288;2022-11-15T15:49:13;12.40;97.60
23233;DHT22;11785;49.500;8.288;2022-11-15T15:51:38;12.40;97.60
23233;DHT22;11785;49.500;8.288;2022-11-15T15:54:04;12.40;97.60
23233;DHT22;11785;49.500;8.288;2022-11-15T15:56:30;12.50;97.20
23233;DHT22;11785;49.500;8.288;2022-11-15T15:58:55;12.50;97.20
23233;DHT22;11785;49.500;8.288;2022-11-15T16:01:21;12.50;97.20
23233;DHT22;11785;49.500;8.288;2022-11-15T16:03:47;12.40;97.40
23233;DHT22;11785;49.500;8.288;2022-11-15T16:06:35;12.40;97.30
23233;DHT22;11785;49.500;8.288;2022-11-15T16:09:02;12.50;97.10
23233;DHT22;11785;49.500;8.288;2022-11-15T16:11:28;12.50;97.00
23233;DHT22;11785;49.500;8.288;2022-11-15T16:13:54;12.40;97.40
23233;DHT22;11785;49.500;8.288;2022-11-15T16:16:21;12.30;97.70
23233;DHT22;11785;49.500;8.288;2022-11-15T16:18:47;12.30;97.80
23233;DHT22;11785;49.500;8.288;2022-11-15T16:21:12;12.30;97.90
23233;DHT22;11785;49.500;8.288;2022-11-15T16:23:38;12.20;98.20
23233;DHT22;11785;49.500;8.288;2022-11-15T16:26:18;12.20;98.30
23233;DHT22;11785;49.500;8.288;2022-11-15T16:28:44;12.20;98.30
23233;DHT22;11785;49.500;8.288;2022-11-15T16:31:11;12.20;98.40
23233;DHT22;11785;49.500;8.288;2022-11-15T16:33:38;12.10;98.60
23233;DHT22;11785;49.500;8.288;2022-11-15T16:36:06;12.10;98.70
23233;DHT22;11785;49.500;8.288;2022-11-15T16:38:32;12.00;99.30
23233;DHT22;11785;49.500;8.288;2022-11-15T16:40:58;12.00;99.10
23233;DHT22;11785;49.500;8.288;2022-11-15T16:43:23;12.00;99.20
23233;DHT22;11785;49.500;8.288;2022-11-15T16:45:49;12.00;99.10
23233;DHT22;11785;49.500;8.288;2022-11-15T16:48:22;12.00;99.10
23233;DHT22;11785;49.500;8.288;2022-11-15T16:50:49;12.00;99.30
23233;DHT22;11785;49.500;8.288;2022-11-15T16:53:15;11.90;99.70
23233;DHT22;11785;49.500;8.288;2022-11-15T16:55:41;11.80;99.90
23233;DHT22;11785;49.500;8.288;2022-11-15T16:58:08;11.80;99.90
23233;DHT22;11785;49.500;8.288;2022-11-15T17:00:35;11.70;99.90
23233;DHT22;11785;49.500;8.288;2022-11-15T17:03:00;11.70;99.90
23233;DHT22;11785;49.500;8.288;2022-11-15T17:05:28;11.60;99.90
23233;DHT22;11785;49.500;8.288;2022-11-15T17:07:53;11.50;99.90
23233;DHT22;11785;49.500;8.288;2022-11-15T17:10:21;11.40;99.90
23233;DHT22;11785;49.500;8.288;2022-11-15T17:12:48;11.40;99.90
23233;DHT22;11785;49.500;8.288;2022-11-15T17:15:16;11.30;99.90
23233;DHT22;11785;49.500;8.288;2022-11-15T17:17:42;11.30;99.90
23233;DHT22;11785;49.500;8.288;2022-11-15T17:20:18;11.20;99.90
23233;DHT22;11785;49.500;8.288;2022-11-15T17:22:44;11.20;99.90
23233;DHT22;11785;49.500;8.288;2022-11-15T17:25:11;11.10;99.90
23233;DHT22;11785;49.500;8.288;2022-11-15T17:27:37;11.10;99.90
23233;DHT22;11785;49.500;8.288;2022-11-15T17:30:04;11.10;99.90
23233;DHT22;11785;49.500;8.288;2022-11-15T17:32:30;11.10;99.90
23233;DHT22;11785;49.500;8.288;2022-11-15T17:34:55;11.10;99.90
23233;DHT22;11785;49.500;8.288;2022-11-15T17:37:21;11.10;99.90
23233;DHT22;11785;49.500;8.288;2022-11-15T17:39:46;11.10;99.90
23233;DHT22;11785;49.500;8.288;2022-11-15T17:42:12;11.10;99.90
23233;DHT22;11785;49.500;8.288;2022-11-15T17:44:38;11.10;99.90
23233;DHT22;11785;49.500;8.288;2022-11-15T17:47:03;11.10;99.90
23233;DHT22;11785;49.500;8.288;2022-11-15T17:49:29;11.10;99.90
23233;DHT22;11785;49.500;8.288;2022-11-15T17:51:55;11.10;99.90
23233;DHT22;11785;49.500;8.288;2022-11-15T17:54:22;11.10;99.90
23233;DHT22;11785;49.500;8.288;2022-11-15T17:56:49;11.10;99.90